Kyrock, Kentucky
Current Conditions -  °F | °C
As of 2:53 PM on Saturday 20 Dec 2014 (Local Time) from KBWG Reporting Station
Few Clouds Few Clouds  
Wind Chill: 40°   Ceiling: Unl
Heat Index: 43°   Visibility: 10mi
Dew Point: 27°   Wind: 5mph
Humidity: 53%   Direction: 10°N
Pressure: 30.25"   Gusts: NA
Location:  37.2612°N, 86.3064°W
Report Text: KBWG 202053Z AUTO 01004KT 10SM FEW060 06/M03 A3025 RMK AO2 SLP245 T00611028 55004
Loading
Personal Weather Stations






























Interactive Weather Map New forecast layout! Learn more

10-Day Weather Forecast

Advertisements
Track Severe Weather on mobile